createdAt,value
2018-11-12T00:00:45.968Z,95566.17
2018-11-12T00:03:17.781Z,95565.09
2018-11-12T00:05:49.564Z,95565.98
2018-11-12T00:08:21.567Z,95561.91
2018-11-12T00:10:53.347Z,95551.95
2018-11-12T00:13:25.195Z,95554.18
2018-11-12T00:15:56.977Z,95560.50
2018-11-12T00:18:28.855Z,95563.45
2018-11-12T00:21:00.645Z,95566.73
2018-11-12T00:23:32.475Z,95576.56
2018-11-12T00:26:04.608Z,95580.13
2018-11-12T00:28:41.073Z,95578.56
2018-11-12T00:31:12.879Z,95578.88
2018-11-12T00:33:44.694Z,95574.97
2018-11-12T00:36:16.549Z,95581.02
2018-11-12T00:38:48.394Z,95581.17
2018-11-12T00:41:20.173Z,95590.02
2018-11-12T00:43:51.998Z,95595.36
2018-11-12T00:46:23.808Z,95592.73
2018-11-12T00:48:55.696Z,95592.09
2018-11-12T00:51:27.505Z,95586.42
2018-11-12T00:53:59.305Z,95587.78
2018-11-12T00:56:31.306Z,95590.66
2018-11-12T00:59:03.139Z,95594.97
2018-11-12T01:01:34.950Z,95593.81
2018-11-12T01:04:07.170Z,95587.38
2018-11-12T01:06:38.874Z,95591.84
2018-11-12T01:09:12.480Z,95585.23
2018-11-12T01:11:44.278Z,95593.28
2018-11-12T01:14:16.120Z,95599.98
2018-11-12T01:16:47.907Z,95597.30
2018-11-12T01:19:19.744Z,95603.63
2018-11-12T01:21:52.136Z,95601.85
2018-11-12T01:24:23.943Z,95602.11
2018-11-12T01:26:55.743Z,95594.72
2018-11-12T01:29:27.561Z,95584.15
2018-11-12T01:31:59.372Z,95580.66
2018-11-12T01:34:31.174Z,95576.94
2018-11-12T01:37:05.719Z,95575.98
2018-11-12T01:39:37.660Z,95585.74
2018-11-12T01:42:09.533Z,95590.02
2018-11-12T01:44:41.305Z,95591.95
2018-11-12T01:47:13.098Z,95588.77
2018-11-12T01:49:44.941Z,95579.59
2018-11-12T01:52:16.730Z,95573.25
2018-11-12T01:54:48.548Z,95573.35
2018-11-12T01:57:20.314Z,95585.06
2018-11-12T01:59:52.116Z,95581.63
2018-11-12T02:02:23.894Z,95590.85
2018-11-12T02:04:55.833Z,95595.76
2018-11-12T02:07:27.494Z,95582.77
2018-11-12T02:09:59.344Z,95583.28
2018-11-12T02:12:31.150Z,95581.39
2018-11-12T02:15:02.976Z,95579.89
2018-11-12T02:17:34.766Z,95577.52
2018-11-12T02:20:07.873Z,95578.70
2018-11-12T02:22:39.661Z,95574.16
2018-11-12T02:25:12.384Z,95574.84
2018-11-12T02:27:44.178Z,95580.14
2018-11-12T02:30:36.181Z,95578.02
2018-11-12T02:33:07.948Z,95578.02
2018-11-12T02:35:39.737Z,95579.86
2018-11-12T02:38:11.702Z,95573.89
2018-11-12T02:40:43.590Z,95576.31
2018-11-12T02:43:15.381Z,95577.70
2018-11-12T02:45:47.200Z,95573.89
2018-11-12T02:48:18.988Z,95575.39
2018-11-12T02:50:50.805Z,95574.90
2018-11-12T02:53:22.588Z,95575.96
2018-11-12T02:55:54.518Z,95573.97
2018-11-12T02:58:26.303Z,95573.25
2018-11-12T03:01:00.781Z,95572.50
2018-11-12T03:03:32.589Z,95571.31
2018-11-12T03:06:04.416Z,95572.90
2018-11-12T03:08:36.197Z,95577.60
2018-11-12T03:11:07.983Z,95576.70
2018-11-12T03:13:39.781Z,95569.17
2018-11-12T03:16:11.754Z,95564.81
2018-11-12T03:18:43.612Z,95565.91
2018-11-12T03:21:15.435Z,95562.92
2018-11-12T03:23:47.228Z,95569.68
2018-11-12T03:26:19.038Z,95570.97
2018-11-12T03:28:50.843Z,95568.78
2018-11-12T03:31:22.825Z,95580.78
2018-11-12T03:33:54.623Z,95583.84
2018-11-12T03:36:26.452Z,95588.10
2018-11-12T03:38:58.229Z,95589.45
2018-11-12T03:41:30.042Z,95595.37
2018-11-12T03:44:01.839Z,95591.27
2018-11-12T03:46:33.676Z,95597.56
2018-11-12T03:49:06.256Z,95597.76
2018-11-12T03:51:38.080Z,95593.87
2018-11-12T03:54:09.895Z,95603.22
2018-11-12T03:56:41.736Z,95612.75
2018-11-12T03:59:13.511Z,95607.12
2018-11-12T04:01:46.150Z,95610.45
2018-11-12T04:04:18.469Z,95604.42
2018-11-12T04:06:50.307Z,95601.55
2018-11-12T04:09:22.122Z,95594.01
2018-11-12T04:11:54.073Z,95598.09
2018-11-12T04:14:25.881Z,95586.48
2018-11-12T04:16:57.666Z,95585.95
2018-11-12T04:19:29.477Z,95590.93
2018-11-12T04:22:01.304Z,95580.34
2018-11-12T04:24:33.163Z,95580.92
2018-11-12T04:27:04.977Z,95574.09
2018-11-12T04:29:36.754Z,95582.66
2018-11-12T04:32:08.600Z,95579.80
2018-11-12T04:34:40.377Z,95573.02
2018-11-12T04:37:12.218Z,95577.52
2018-11-12T04:39:43.986Z,95572.36
2018-11-12T04:42:15.819Z,95573.92
2018-11-12T04:44:47.587Z,95569.27
2018-11-12T04:47:19.395Z,95565.41
2018-11-12T04:49:51.196Z,95568.30
2018-11-12T04:52:23.014Z,95576.47
2018-11-12T04:57:26.859Z,95578.04
2018-11-12T04:59:58.711Z,95575.00
2018-11-12T05:02:31.383Z,95570.97
2018-11-12T05:05:03.184Z,95564.73
2018-11-12T05:07:35.092Z,95576.58
2018-11-12T05:10:09.192Z,95590.19
2018-11-12T05:12:41.689Z,95587.23
2018-11-12T05:15:16.175Z,95579.50
2018-11-12T05:17:48.019Z,95583.23
2018-11-12T05:20:21.329Z,95597.96
2018-11-12T05:22:53.267Z,95593.34
2018-11-12T05:25:25.078Z,95586.17
2018-11-12T05:27:57.002Z,95591.22
2018-11-12T05:30:29.805Z,95593.53
2018-11-12T05:33:01.713Z,95591.08
2018-11-12T05:35:33.581Z,95589.81
2018-11-12T05:38:05.626Z,95591.22
2018-11-12T05:40:37.434Z,95592.30
2018-11-12T05:43:09.255Z,95598.08
2018-11-12T05:45:41.034Z,95593.06
2018-11-12T05:48:12.920Z,95589.91
2018-11-12T05:50:44.730Z,95592.20
2018-11-12T05:53:16.605Z,95594.44
2018-11-12T05:55:48.457Z,95609.23
2018-11-12T05:58:20.279Z,95606.31
2018-11-12T06:00:52.097Z,95603.17
2018-11-12T06:03:23.991Z,95594.43
2018-11-12T06:05:55.848Z,95584.70
2018-11-12T06:08:27.669Z,95590.50
2018-11-12T06:10:59.539Z,95589.20
2018-11-12T06:13:31.457Z,95585.42
2018-11-12T06:16:03.267Z,95589.84
2018-11-12T06:18:35.148Z,95595.27
2018-11-12T06:21:07.298Z,95604.19
2018-11-12T06:23:39.095Z,95607.76
2018-11-12T06:26:10.909Z,95617.58
2018-11-12T06:28:42.745Z,95618.06
2018-11-12T06:31:14.674Z,95607.11
2018-11-12T06:33:46.414Z,95613.09
2018-11-12T06:36:18.325Z,95619.25
2018-11-12T06:38:50.277Z,95614.94
2018-11-12T06:41:22.060Z,95616.02
2018-11-12T06:43:53.959Z,95612.61
2018-11-12T06:46:25.808Z,95610.41
2018-11-12T06:48:57.760Z,95606.64
2018-11-12T06:51:29.720Z,95611.73
2018-11-12T06:54:01.625Z,95618.33
2018-11-12T06:56:33.543Z,95613.16
2018-11-12T06:59:05.351Z,95613.06
2018-11-12T07:01:37.323Z,95608.78
2018-11-12T07:04:09.152Z,95600.67
2018-11-12T07:06:40.957Z,95597.68
2018-11-12T07:09:13.909Z,95597.20
2018-11-12T07:11:45.723Z,95601.09
2018-11-12T07:14:20.683Z,95599.95
2018-11-12T07:17:10.206Z,95599.34
2018-11-12T07:19:44.941Z,95603.37
2018-11-12T07:22:16.806Z,95612.92
2018-11-12T07:24:48.638Z,95599.84
2018-11-12T07:27:20.458Z,95598.68
2018-11-12T07:29:52.295Z,95595.15
2018-11-12T07:32:24.097Z,95596.59
2018-11-12T07:34:55.904Z,95587.75
2018-11-12T07:37:27.734Z,95573.47
2018-11-12T07:39:59.698Z,95572.50
2018-11-12T07:42:31.655Z,95572.85
2018-11-12T07:45:03.599Z,95577.93
2018-11-12T07:47:35.571Z,95573.23
2018-11-12T07:50:13.867Z,95579.52
2018-11-12T07:52:45.851Z,95573.03
2018-11-12T07:55:22.760Z,95575.41
2018-11-12T07:57:55.512Z,95574.58
2018-11-12T08:00:28.727Z,95571.98
2018-11-12T08:03:07.828Z,95564.75
2018-11-12T08:05:40.051Z,95558.50
2018-11-12T08:08:12.077Z,95553.41
2018-11-12T08:10:43.900Z,95552.61
2018-11-12T08:13:15.697Z,95565.19
2018-11-12T08:15:47.543Z,95563.13
2018-11-12T08:18:19.416Z,95568.26
2018-11-12T08:20:51.252Z,95575.39
2018-11-12T08:23:23.171Z,95564.53
2018-11-12T08:25:55.126Z,95560.66
2018-11-12T08:28:26.868Z,95557.67
2018-11-12T08:30:58.749Z,95539.73
2018-11-12T08:33:30.648Z,95547.06
2018-11-12T08:36:02.701Z,95547.92
2018-11-12T08:38:34.398Z,95546.08
2018-11-12T08:41:06.416Z,95536.86
2018-11-12T08:43:38.185Z,95536.19
2018-11-12T08:46:10.093Z,95538.62
2018-11-12T08:48:42.090Z,95544.72
2018-11-12T08:51:13.872Z,95541.01
2018-11-12T08:53:45.735Z,95545.55
2018-11-12T08:56:17.650Z,95545.02
2018-11-12T08:58:52.673Z,95552.92
2018-11-12T09:01:24.669Z,95544.78
2018-11-12T09:03:56.505Z,95541.66
2018-11-12T09:06:28.337Z,95544.66
2018-11-12T09:09:00.168Z,95539.09
2018-11-12T09:11:32.059Z,95534.20
2018-11-12T09:14:04.187Z,95536.75
2018-11-12T09:16:36.148Z,95537.81
2018-11-12T09:19:08.541Z,95526.53
2018-11-12T09:21:40.543Z,95529.77
2018-11-12T09:24:12.401Z,95525.95
2018-11-12T09:26:44.565Z,95532.50
2018-11-12T09:29:16.442Z,95545.09
2018-11-12T09:31:48.369Z,95537.95
2018-11-12T09:34:20.314Z,95536.26
2018-11-12T09:36:52.239Z,95528.86
2018-11-12T09:39:24.109Z,95538.41
2018-11-12T09:41:55.979Z,95538.02
2018-11-12T09:44:27.936Z,95541.06
2018-11-12T09:46:59.769Z,95531.99
2018-11-12T09:49:31.683Z,95531.88
2018-11-12T09:52:03.791Z,95528.44
2018-11-12T09:54:35.858Z,95535.67
2018-11-12T09:57:07.662Z,95532.38
2018-11-12T09:59:39.449Z,95542.16
2018-11-12T10:02:11.985Z,95552.27
2018-11-12T10:04:44.639Z,95553.61
2018-11-12T10:07:16.386Z,95548.92
2018-11-12T10:09:49.996Z,95550.33
2018-11-12T10:12:21.385Z,95546.75
2018-11-12T10:14:52.896Z,95547.27
2018-11-12T10:17:25.411Z,95546.11
2018-11-12T10:19:54.524Z,95543.58
2018-11-12T10:22:26.385Z,95551.09
2018-11-12T10:24:58.187Z,95549.01
2018-11-12T10:27:30.025Z,95546.20
2018-11-12T10:30:01.996Z,95546.71
2018-11-12T10:32:33.883Z,95546.88
2018-11-12T10:35:05.990Z,95546.56
2018-11-12T10:37:38.343Z,95549.16
2018-11-12T10:40:17.289Z,95548.20
2018-11-12T10:42:49.380Z,95548.86
2018-11-12T10:45:31.083Z,95548.20
2018-11-12T10:48:03.076Z,95554.09
2018-11-12T10:50:35.006Z,95553.30
2018-11-12T10:53:07.217Z,95546.88
2018-11-12T10:55:39.148Z,95547.84
2018-11-12T10:58:10.954Z,95539.80
2018-11-12T11:01:00.381Z,95533.42
2018-11-12T11:03:54.183Z,95534.73
2018-11-12T11:06:28.247Z,95546.72
2018-11-12T11:09:00.131Z,95532.44
2018-11-12T11:11:31.944Z,95533.90
2018-11-12T11:14:03.815Z,95532.42
2018-11-12T11:16:35.640Z,95533.88
2018-11-12T11:19:08.182Z,95535.20
2018-11-12T11:21:40.001Z,95524.55
2018-11-12T11:24:11.877Z,95524.53
2018-11-12T11:26:43.752Z,95522.36
2018-11-12T11:29:15.663Z,95518.55
2018-11-12T11:31:47.546Z,95513.30
2018-11-12T11:34:19.466Z,95522.54
2018-11-12T11:36:51.278Z,95523.38
2018-11-12T11:39:23.068Z,95523.36
2018-11-12T11:41:54.891Z,95532.22
2018-11-12T11:44:26.753Z,95523.67
2018-11-12T11:46:58.567Z,95524.70
2018-11-12T11:49:30.598Z,95524.60
2018-11-12T11:52:02.547Z,95519.20
2018-11-12T11:54:34.466Z,95512.44
2018-11-12T11:57:06.587Z,95514.22
2018-11-12T11:59:38.435Z,95516.72
2018-11-12T12:02:10.385Z,95513.05
2018-11-12T12:04:42.204Z,95506.12
2018-11-12T12:07:14.018Z,95506.34
2018-11-12T12:09:46.021Z,95506.43
2018-11-12T12:12:17.776Z,95503.00
2018-11-12T12:14:49.681Z,95502.38
2018-11-12T12:17:21.537Z,95500.38
2018-11-12T12:19:53.448Z,95508.86
2018-11-12T12:22:25.266Z,95513.05
2018-11-12T12:24:57.267Z,95515.95
2018-11-12T12:27:29.019Z,95516.43
2018-11-12T12:30:00.936Z,95510.77
2018-11-12T12:32:32.959Z,95503.91
2018-11-12T12:35:04.823Z,95503.23
2018-11-12T12:37:36.849Z,95500.95
2018-11-12T12:40:11.488Z,95506.52
2018-11-12T12:42:43.336Z,95509.30
2018-11-12T12:45:16.752Z,95512.33
2018-11-12T12:47:48.994Z,95509.01
2018-11-12T12:50:21.476Z,95515.58
2018-11-12T12:52:53.321Z,95513.17
2018-11-12T12:55:27.458Z,95515.14
2018-11-12T12:57:59.273Z,95524.36
2018-11-12T13:00:31.163Z,95519.48
2018-11-12T13:03:03.018Z,95526.02
2018-11-12T13:05:34.930Z,95519.70
2018-11-12T13:08:06.902Z,95517.30
2018-11-12T13:10:38.827Z,95514.09
2018-11-12T13:13:11.693Z,95512.87
2018-11-12T13:15:43.623Z,95510.02
2018-11-12T13:18:15.489Z,95513.05
2018-11-12T13:20:47.453Z,95520.16
2018-11-12T13:23:21.723Z,95524.09
2018-11-12T13:25:53.577Z,95519.84
2018-11-12T13:28:25.518Z,95520.09
2018-11-12T13:30:57.356Z,95529.66
2018-11-12T13:33:29.197Z,95522.91
2018-11-12T13:36:01.177Z,95527.59
2018-11-12T13:38:33.092Z,95532.20
2018-11-12T13:41:04.937Z,95531.52
2018-11-12T13:43:36.881Z,95531.28
2018-11-12T13:46:08.897Z,95538.47
2018-11-12T13:48:46.871Z,95541.98
2018-11-12T13:51:19.512Z,95542.58
2018-11-12T13:53:51.435Z,95549.17
2018-11-12T13:56:23.593Z,95561.45
2018-11-12T13:58:55.539Z,95564.27
2018-11-12T14:01:27.316Z,95565.36
2018-11-12T14:03:59.160Z,95571.06
2018-11-12T14:06:31.094Z,95577.60
2018-11-12T14:09:02.898Z,95584.97
2018-11-12T14:11:34.801Z,95590.59
2018-11-12T14:14:07.301Z,95598.39
2018-11-12T14:16:38.943Z,95598.34
2018-11-12T14:19:13.291Z,95609.70
2018-11-12T14:21:45.300Z,95615.75
2018-11-12T14:24:17.133Z,95622.97
2018-11-12T14:26:49.091Z,95625.47
2018-11-12T14:29:21.062Z,95625.20
2018-11-12T14:31:52.929Z,95617.77
2018-11-12T14:34:24.773Z,95616.55
2018-11-12T14:36:56.678Z,95618.06
2018-11-12T14:39:28.577Z,95611.91
2018-11-12T14:42:00.403Z,95620.13
2018-11-12T14:44:32.257Z,95619.02
2018-11-12T14:47:04.172Z,95618.54
2018-11-12T14:49:36.090Z,95625.62
2018-11-12T14:52:08.033Z,95625.10
2018-11-12T14:54:39.912Z,95625.27
2018-11-12T14:57:11.837Z,95627.39
2018-11-12T14:59:43.752Z,95634.61
2018-11-12T15:02:15.635Z,95638.69
2018-11-12T15:04:47.503Z,95641.14
2018-11-12T15:07:19.464Z,95646.73
2018-11-12T15:09:51.491Z,95638.70
2018-11-12T15:12:23.424Z,95634.27
2018-11-12T15:14:55.357Z,95638.36
2018-11-12T15:17:29.835Z,95645.88
2018-11-12T15:20:01.726Z,95648.47
2018-11-12T15:22:33.648Z,95644.06
2018-11-12T15:25:05.947Z,95652.25
2018-11-12T15:27:37.846Z,95654.67
2018-11-12T15:30:14.135Z,95654.63
2018-11-12T15:32:46.940Z,95657.84
2018-11-12T15:35:18.805Z,95658.99
2018-11-12T15:37:51.145Z,95663.95
2018-11-12T15:40:22.924Z,95670.14
2018-11-12T15:42:54.811Z,95677.59
2018-11-12T15:45:26.901Z,95672.73
2018-11-12T15:47:58.762Z,95673.63
2018-11-12T15:50:36.223Z,95676.34
2018-11-12T15:53:08.090Z,95678.68
2018-11-12T15:55:39.969Z,95677.31
2018-11-12T15:58:12.076Z,95678.45
2018-11-12T16:00:44.012Z,95681.69
2018-11-12T16:03:15.861Z,95683.77
2018-11-12T16:05:47.804Z,95689.53
2018-11-12T16:08:19.816Z,95692.10
2018-11-12T16:10:51.666Z,95692.77
2018-11-12T16:13:23.420Z,95697.70
2018-11-12T16:15:55.269Z,95700.08
2018-11-12T16:18:27.128Z,95702.81
2018-11-12T16:20:59.004Z,95704.57
2018-11-12T16:23:30.967Z,95708.63
2018-11-12T16:26:02.804Z,95710.39
2018-11-12T16:28:34.677Z,95713.64
2018-11-12T16:31:06.944Z,95715.08
2018-11-12T16:33:41.041Z,95720.14
2018-11-12T16:36:12.949Z,95727.42
2018-11-12T16:38:44.954Z,95727.48
2018-11-12T16:41:16.820Z,95733.81
2018-11-12T16:43:48.786Z,95735.35
2018-11-12T16:46:20.703Z,95739.05
2018-11-12T16:48:52.684Z,95739.87
2018-11-12T16:51:24.672Z,95747.09
2018-11-12T16:53:56.478Z,95751.34
2018-11-12T16:56:28.325Z,95760.59
2018-11-12T16:59:00.258Z,95771.39
2018-11-12T17:01:32.183Z,95776.10
2018-11-12T17:04:03.894Z,95782.53
2018-11-12T17:06:35.903Z,95785.61
2018-11-12T17:09:14.255Z,95780.89
2018-11-12T17:11:46.142Z,95789.13
2018-11-12T17:14:18.034Z,95787.83
2018-11-12T17:16:49.882Z,95795.16
2018-11-12T17:19:21.826Z,95789.84
2018-11-12T17:21:53.745Z,95794.31
2018-11-12T17:24:25.730Z,95806.08
2018-11-12T17:27:00.283Z,95801.30
2018-11-12T17:29:32.213Z,95806.84
2018-11-12T17:32:04.071Z,95802.33
2018-11-12T17:34:35.892Z,95809.67
2018-11-12T17:37:07.965Z,95818.91
2018-11-12T17:39:39.789Z,95817.19
2018-11-12T17:42:11.693Z,95816.22
2018-11-12T17:44:43.517Z,95818.53
2018-11-12T17:47:15.392Z,95818.33
2018-11-12T17:49:47.314Z,95820.28
2018-11-12T17:52:19.241Z,95832.20
2018-11-12T17:54:51.108Z,95835.26
2018-11-12T17:57:23.032Z,95842.62
2018-11-12T17:59:54.935Z,95851.58
2018-11-12T18:02:26.849Z,95859.28
2018-11-12T18:04:58.762Z,95860.66
2018-11-12T18:07:30.692Z,95859.77
2018-11-12T18:10:02.449Z,95868.68
2018-11-12T18:12:34.417Z,95871.99
2018-11-12T18:15:07.759Z,95877.25
2018-11-12T18:17:39.644Z,95875.59
2018-11-12T18:20:17.424Z,95870.65
2018-11-12T18:22:49.844Z,95880.17
2018-11-12T18:25:21.749Z,95879.03
2018-11-12T18:27:54.375Z,95884.20
2018-11-12T18:30:27.802Z,95878.33
2018-11-12T18:33:00.030Z,95882.20
2018-11-12T18:35:31.900Z,95885.52
2018-11-12T18:38:03.912Z,95885.89
2018-11-12T18:40:35.592Z,95881.88
2018-11-12T18:43:07.907Z,95873.02
2018-11-12T18:45:39.754Z,95871.48
2018-11-12T18:48:11.619Z,95873.26
2018-11-12T18:50:43.503Z,95881.50
2018-11-12T18:53:15.381Z,95875.36
2018-11-12T18:55:47.357Z,95877.09
2018-11-12T18:58:19.252Z,95875.95
2018-11-12T19:00:51.125Z,95874.16
2018-11-12T19:03:23.068Z,95873.12
2018-11-12T19:05:55.085Z,95876.17
2018-11-12T19:08:26.944Z,95878.89
2018-11-12T19:10:58.916Z,95880.30
2018-11-12T19:13:32.160Z,95879.73
2018-11-12T19:16:04.191Z,95887.14
2018-11-12T19:18:36.044Z,95889.01
2018-11-12T19:21:08.248Z,95890.56
2018-11-12T19:23:40.047Z,95885.61
2018-11-12T19:26:11.841Z,95889.45
2018-11-12T19:28:43.670Z,95891.88
2018-11-12T19:31:15.563Z,95895.32
2018-11-12T19:33:47.377Z,95891.44
2018-11-12T19:36:19.352Z,95895.20
2018-11-12T19:38:51.203Z,95907.95
2018-11-12T19:41:23.052Z,95905.74
2018-11-12T19:43:54.896Z,95905.02
2018-11-12T19:46:26.724Z,95910.89
2018-11-12T19:48:58.556Z,95909.47
2018-11-12T19:51:30.504Z,95906.72
2018-11-12T19:54:02.247Z,95914.34
2018-11-12T19:56:34.075Z,95909.23
2018-11-12T19:59:06.246Z,95911.78
2018-11-12T20:01:38.029Z,95915.79
2018-11-12T20:04:09.899Z,95914.02
2018-11-12T20:06:41.785Z,95922.01
2018-11-12T20:09:13.628Z,95915.25
2018-11-12T20:11:45.577Z,95922.01
2018-11-12T20:14:17.504Z,95929.17
2018-11-12T20:16:49.339Z,95929.72
2018-11-12T20:19:21.175Z,95931.78
2018-11-12T20:21:53.098Z,95936.22
2018-11-12T20:24:24.936Z,95933.32
2018-11-12T20:26:56.845Z,95940.93
2018-11-12T20:29:29.230Z,95937.39
2018-11-12T20:32:01.121Z,95935.03
2018-11-12T20:34:32.946Z,95939.63
2018-11-12T20:37:04.750Z,95941.89
2018-11-12T20:39:36.618Z,95941.72
2018-11-12T20:42:08.817Z,95937.70
2018-11-12T20:44:40.673Z,95943.34
2018-11-12T20:47:12.479Z,95941.20
2018-11-12T20:49:44.298Z,95945.61
2018-11-12T20:52:16.243Z,95950.31
2018-11-12T20:54:47.998Z,95949.11
2018-11-12T20:57:19.824Z,95950.95
2018-11-12T20:59:53.791Z,95951.97
2018-11-12T21:02:25.653Z,95949.83
2018-11-12T21:04:57.472Z,95948.82
2018-11-12T21:07:29.287Z,95946.06
2018-11-12T21:10:01.121Z,95944.45
2018-11-12T21:12:32.967Z,95941.23
2018-11-12T21:15:07.822Z,95942.66
2018-11-12T21:17:36.700Z,95935.11
2018-11-12T21:20:10.725Z,95937.97
2018-11-12T21:22:42.697Z,95936.98
2018-11-12T21:25:15.867Z,95938.20
2018-11-12T21:27:47.763Z,95937.63
2018-11-12T21:30:21.126Z,95935.44
2018-11-12T21:32:52.974Z,95928.37
2018-11-12T21:35:24.853Z,95925.70
2018-11-12T21:37:58.107Z,95929.58
2018-11-12T21:40:30.208Z,95926.64
2018-11-12T21:43:02.123Z,95920.94
2018-11-12T21:45:33.855Z,95924.10
2018-11-12T21:48:05.902Z,95923.69
2018-11-12T21:50:37.699Z,95920.18
2018-11-12T21:53:09.512Z,95915.58
2018-11-12T21:55:41.333Z,95918.16
2018-11-12T21:58:13.153Z,95920.65
2018-11-12T22:00:45.005Z,95923.12
2018-11-12T22:03:16.846Z,95923.63
2018-11-12T22:05:48.669Z,95926.79
2018-11-12T22:08:20.557Z,95921.90
2018-11-12T22:10:52.415Z,95924.28
2018-11-12T22:13:24.243Z,95927.02
2018-11-12T22:15:56.028Z,95930.27
2018-11-12T22:18:27.866Z,95936.11
2018-11-12T22:20:59.685Z,95929.33
2018-11-12T22:23:31.547Z,95932.29
2018-11-12T22:26:03.372Z,95933.23
2018-11-12T22:28:35.208Z,95943.30
2018-11-12T22:31:07.194Z,95938.43
2018-11-12T22:33:39.027Z,95943.83
2018-11-12T22:36:10.847Z,95947.81
2018-11-12T22:38:42.651Z,95941.70
2018-11-12T22:41:14.461Z,95938.59
2018-11-12T22:43:46.340Z,95940.48
2018-11-12T22:46:18.174Z,95933.88
2018-11-12T22:48:49.997Z,95933.71
2018-11-12T22:51:21.804Z,95943.67
2018-11-12T22:53:53.735Z,95932.20
2018-11-12T22:56:25.471Z,95934.38
2018-11-12T22:58:57.288Z,95934.05
2018-11-12T23:01:29.131Z,95940.50
2018-11-12T23:04:01.020Z,95939.23
2018-11-12T23:06:32.812Z,95933.36
2018-11-12T23:09:14.124Z,95933.95
2018-11-12T23:11:45.936Z,95934.47
2018-11-12T23:14:17.792Z,95934.58
2018-11-12T23:16:49.621Z,95938.17
2018-11-12T23:19:21.576Z,95940.25
2018-11-12T23:21:53.288Z,95940.88
2018-11-12T23:24:25.228Z,95937.17
2018-11-12T23:26:57.451Z,95936.23
2018-11-12T23:29:29.267Z,95928.24
2018-11-12T23:32:01.092Z,95929.40
2018-11-12T23:34:32.903Z,95926.70
2018-11-12T23:37:04.698Z,95925.20
2018-11-12T23:39:36.527Z,95917.67
2018-11-12T23:42:08.543Z,95915.33
2018-11-12T23:44:40.342Z,95917.14
2018-11-12T23:47:12.137Z,95913.02
2018-11-12T23:49:43.959Z,95912.50
2018-11-12T23:52:15.777Z,95907.74
2018-11-12T23:54:47.601Z,95908.58
2018-11-12T23:57:19.449Z,95904.21
2018-11-12T23:59:51.245Z,95898.78
